PAS102 WIII-WAAA
Flight info
| Callsign | PAS102 |
|---|---|
| Flight time | 1h 59m |
| Altitude | 37000 |
| Route | CA2B CA T5 BIMAK BIMAK1A |
| Aircraft | A320/M-SDE3FGHIRWY/LB1 |
Departure
| Time | 2026-05-05 08:56 |
|---|---|
| Airport | Soekarno-Hatta International Airport (WIII) |
Arrival
| Time | 2026-05-05 10:56 |
|---|---|
| Airport | Sultan Hasanuddin International Airport (WAAA) |
| Time | Latitude | Longitude | Altitude | Speed | Heading |
|---|---|---|---|---|---|
| 2026-05-05 08:21 | -6.11622 | 106.66829 | 31 ft | 0 kts | 158° |
| 2026-05-05 08:31 | -6.11793 | 106.66384 | 32 ft | 0 kts | 157° |
| 2026-05-05 08:42 | -6.11788 | 106.66382 | 32 ft | 2 kts | 157° |
| 2026-05-05 08:42 | -6.11770 | 106.66374 | 52 ft | 3 kts | 157° |
| 2026-05-05 08:43 | -6.11751 | 106.66367 | 32 ft | 3 kts | 153° |
| 2026-05-05 08:43 | -6.11734 | 106.66356 | 32 ft | 3 kts | 140° |
| 2026-05-05 08:43 | -6.11720 | 106.66342 | 32 ft | 3 kts | 123° |
| 2026-05-05 08:43 | -6.11710 | 106.66325 | 32 ft | 3 kts | 104° |
| 2026-05-05 08:44 | -6.11708 | 106.66305 | 31 ft | 3 kts | 78° |
| 2026-05-05 08:44 | -6.11711 | 106.66294 | 30 ft | 2 kts | 68° |
| 2026-05-05 08:44 | -6.11718 | 106.66277 | 30 ft | 3 kts | 65° |
| 2026-05-05 08:44 | -6.11722 | 106.66270 | 30 ft | 0 kts | 68° |
| 2026-05-05 08:47 | -6.11708 | 106.66302 | 31 ft | 13 kts | 68° |
| 2026-05-05 08:47 | -6.11636 | 106.66398 | 32 ft | 20 kts | 7° |
| 2026-05-05 08:47 | -6.11523 | 106.66360 | 32 ft | 14 kts | 337° |
| 2026-05-05 08:47 | -6.11434 | 106.66303 | 31 ft | 16 kts | 295° |
| 2026-05-05 08:48 | -6.11464 | 106.66187 | 32 ft | 19 kts | 247° |
| 2026-05-05 08:48 | -6.11474 | 106.66162 | 32 ft | 0 kts | 247° |
| 2026-05-05 08:49 | -6.11482 | 106.66143 | 32 ft | 12 kts | 247° |
| 2026-05-05 08:49 | -6.11535 | 106.66015 | 32 ft | 21 kts | 248° |
| 2026-05-05 08:49 | -6.11554 | 106.65965 | 32 ft | 2 kts | 249° |
| 2026-05-05 08:49 | -6.11555 | 106.65934 | 32 ft | 7 kts | 286° |
| 2026-05-05 08:50 | -6.11516 | 106.65883 | 32 ft | 12 kts | 305° |
| 2026-05-05 08:50 | -6.11521 | 106.65796 | 32 ft | 15 kts | 247° |
| 2026-05-05 08:50 | -6.11568 | 106.65684 | 32 ft | 20 kts | 247° |
| 2026-05-05 08:50 | -6.11625 | 106.65544 | 33 ft | 24 kts | 248° |
| 2026-05-05 08:51 | -6.11691 | 106.65378 | 34 ft | 27 kts | 248° |
| 2026-05-05 08:51 | -6.11766 | 106.65191 | 35 ft | 30 kts | 248° |
| 2026-05-05 08:51 | -6.11848 | 106.64984 | 34 ft | 33 kts | 249° |
| 2026-05-05 08:51 | -6.11938 | 106.64760 | 36 ft | 36 kts | 249° |
| 2026-05-05 08:52 | -6.12035 | 106.64520 | 35 ft | 38 kts | 247° |
| 2026-05-05 08:52 | -6.12103 | 106.64344 | 35 ft | 20 kts | 246° |
| 2026-05-05 08:52 | -6.12160 | 106.64201 | 35 ft | 24 kts | 248° |
| 2026-05-05 08:52 | -6.12225 | 106.64040 | 38 ft | 20 kts | 248° |
| 2026-05-05 08:53 | -6.12251 | 106.63970 | 38 ft | 11 kts | 256° |
| 2026-05-05 08:53 | -6.12252 | 106.63964 | 38 ft | 0 kts | 257° |
| 2026-05-05 08:53 | -6.12253 | 106.63959 | 38 ft | 4 kts | 259° |
| 2026-05-05 08:53 | -6.12239 | 106.63903 | 38 ft | 12 kts | 304° |
| 2026-05-05 08:54 | -6.12214 | 106.63884 | 39 ft | 0 kts | 337° |
| 2026-05-05 08:54 | -6.12206 | 106.63881 | 39 ft | 5 kts | 339° |
| 2026-05-05 08:55 | -6.12144 | 106.63890 | 39 ft | 12 kts | 26° |
| 2026-05-05 08:55 | -6.12068 | 106.63946 | 37 ft | 7 kts | 62° |
| 2026-05-05 08:55 | -6.12067 | 106.63947 | 37 ft | 0 kts | 64° |
| 2026-05-05 08:55 | -6.11980 | 106.64160 | 37 ft | 83 kts | 68° |
| 2026-05-05 08:56 | -6.11651 | 106.64994 | 85 ft | 165 kts | 68° |
| 2026-05-05 08:56 | -6.11225 | 106.66115 | 864 ft | 180 kts | 68° |
| 2026-05-05 08:56 | -6.10685 | 106.67348 | 1786 ft | 197 kts | 57° |
| 2026-05-05 08:56 | -6.09800 | 106.68459 | 2787 ft | 214 kts | 49° |
| 2026-05-05 08:57 | -6.08681 | 106.69584 | 3589 ft | 239 kts | 46° |
| 2026-05-05 08:57 | -6.07440 | 106.70803 | 4414 ft | 260 kts | 46° |
| 2026-05-05 08:57 | -6.06154 | 106.72120 | 5476 ft | 267 kts | 47° |
| 2026-05-05 08:57 | -6.04863 | 106.73489 | 6634 ft | 271 kts | 48° |
| 2026-05-05 08:58 | -6.03570 | 106.74891 | 7713 ft | 276 kts | 49° |
| 2026-05-05 08:58 | -6.02257 | 106.76328 | 8785 ft | 281 kts | 49° |
| 2026-05-05 08:58 | -6.00927 | 106.77790 | 9853 ft | 286 kts | 49° |
| 2026-05-05 08:58 | -5.99577 | 106.79296 | 10620 ft | 301 kts | 52° |
| 2026-05-05 08:59 | -5.98529 | 106.81202 | 11035 ft | 324 kts | 72° |
| 2026-05-05 08:59 | -5.98231 | 106.83494 | 11548 ft | 340 kts | 94° |
| 2026-05-05 08:59 | -5.98779 | 106.85787 | 12428 ft | 345 kts | 108° |
| 2026-05-05 08:59 | -5.99576 | 106.88082 | 13333 ft | 350 kts | 108° |
| 2026-05-05 09:00 | -6.00385 | 106.90408 | 14145 ft | 355 kts | 108° |
| 2026-05-05 09:00 | -6.01212 | 106.92801 | 14680 ft | 360 kts | 108° |
| 2026-05-05 09:00 | -6.02023 | 106.95158 | 15001 ft | 364 kts | 108° |
| 2026-05-05 09:00 | -6.02851 | 106.97572 | 15820 ft | 366 kts | 108° |
| 2026-05-05 09:01 | -6.03682 | 106.99997 | 16602 ft | 370 kts | 108° |
| 2026-05-05 09:01 | -6.04525 | 107.02461 | 17307 ft | 375 kts | 108° |
| 2026-05-05 09:01 | -6.05379 | 107.04954 | 18032 ft | 380 kts | 108° |
| 2026-05-05 09:01 | -6.06241 | 107.07473 | 18655 ft | 383 kts | 108° |
| 2026-05-05 09:02 | -6.07112 | 107.10017 | 19291 ft | 387 kts | 108° |
| 2026-05-05 09:02 | -6.07991 | 107.12587 | 19899 ft | 391 kts | 108° |
| 2026-05-05 09:02 | -6.08588 | 107.14334 | 20315 ft | 393 kts | 108° |
| 2026-05-05 09:02 | -6.09469 | 107.16910 | 20909 ft | 397 kts | 108° |
| 2026-05-05 09:03 | -6.10494 | 107.19500 | 21513 ft | 401 kts | 113° |
| 2026-05-05 09:03 | -6.11626 | 107.22076 | 22103 ft | 405 kts | 113° |
| 2026-05-05 09:03 | -6.12764 | 107.24679 | 22700 ft | 409 kts | 113° |
| 2026-05-05 09:03 | -6.13912 | 107.27310 | 23272 ft | 413 kts | 113° |
| 2026-05-05 09:04 | -6.15068 | 107.29961 | 23777 ft | 416 kts | 113° |
| 2026-05-05 09:04 | -6.16235 | 107.32637 | 24257 ft | 419 kts | 113° |
| 2026-05-05 09:04 | -6.17408 | 107.35329 | 24743 ft | 422 kts | 113° |
| 2026-05-05 09:04 | -6.18580 | 107.38017 | 25207 ft | 425 kts | 113° |
| 2026-05-05 09:05 | -6.19770 | 107.40747 | 25669 ft | 428 kts | 113° |
| 2026-05-05 09:05 | -6.20971 | 107.43502 | 26125 ft | 432 kts | 113° |
| 2026-05-05 09:05 | -6.22179 | 107.46275 | 26569 ft | 435 kts | 113° |
| 2026-05-05 09:05 | -6.23394 | 107.49064 | 27014 ft | 438 kts | 113° |
| 2026-05-05 09:06 | -6.24620 | 107.51878 | 27433 ft | 441 kts | 113° |
| 2026-05-05 09:06 | -6.25852 | 107.54706 | 27863 ft | 443 kts | 113° |
| 2026-05-05 09:06 | -6.27093 | 107.57556 | 28267 ft | 447 kts | 113° |
| 2026-05-05 09:06 | -6.28340 | 107.60421 | 28674 ft | 449 kts | 113° |
| 2026-05-05 09:07 | -6.29597 | 107.63307 | 29073 ft | 452 kts | 113° |
| 2026-05-05 09:07 | -6.30861 | 107.66211 | 29458 ft | 455 kts | 113° |
| 2026-05-05 09:07 | -6.32131 | 107.69131 | 29849 ft | 458 kts | 113° |
| 2026-05-05 09:07 | -6.33411 | 107.72071 | 30186 ft | 460 kts | 113° |
| 2026-05-05 09:08 | -6.34697 | 107.75026 | 30530 ft | 463 kts | 113° |
| 2026-05-05 09:08 | -6.35990 | 107.78001 | 30872 ft | 465 kts | 113° |
| 2026-05-05 09:08 | -6.37288 | 107.80985 | 31295 ft | 466 kts | 113° |
| 2026-05-05 09:08 | -6.38584 | 107.83965 | 31767 ft | 465 kts | 113° |
| 2026-05-05 09:09 | -6.39879 | 107.86944 | 32232 ft | 464 kts | 113° |
| 2026-05-05 09:09 | -6.41171 | 107.89918 | 32673 ft | 464 kts | 113° |
| 2026-05-05 09:09 | -6.42462 | 107.92890 | 33102 ft | 464 kts | 113° |
| 2026-05-05 09:09 | -6.43754 | 107.95864 | 33543 ft | 463 kts | 113° |
| 2026-05-05 09:10 | -6.45042 | 107.98829 | 33951 ft | 463 kts | 113° |
| 2026-05-05 09:10 | -6.46314 | 108.01757 | 34295 ft | 463 kts | 113° |
| 2026-05-05 09:10 | -6.47602 | 108.04723 | 34665 ft | 463 kts | 113° |
| 2026-05-05 09:10 | -6.48888 | 108.07687 | 35002 ft | 463 kts | 112° |
| 2026-05-05 09:11 | -6.50174 | 108.10653 | 35337 ft | 463 kts | 112° |
| 2026-05-05 09:11 | -6.51461 | 108.13621 | 35683 ft | 463 kts | 112° |
| 2026-05-05 09:11 | -6.52748 | 108.16589 | 36041 ft | 463 kts | 112° |
| 2026-05-05 09:11 | -6.54034 | 108.19555 | 36400 ft | 463 kts | 112° |
| 2026-05-05 09:12 | -6.55320 | 108.22524 | 36712 ft | 463 kts | 112° |
| 2026-05-05 09:12 | -6.56606 | 108.25492 | 36828 ft | 462 kts | 112° |
| 2026-05-05 09:12 | -6.57887 | 108.28448 | 36846 ft | 461 kts | 112° |
| 2026-05-05 09:13 | -6.60448 | 108.34363 | 36846 ft | 462 kts | 112° |
| 2026-05-05 09:13 | -6.63013 | 108.40287 | 36844 ft | 462 kts | 112° |
| 2026-05-05 09:14 | -6.65577 | 108.46210 | 36848 ft | 462 kts | 112° |
| 2026-05-05 09:14 | -6.68041 | 108.52168 | 36847 ft | 460 kts | 106° |
| 2026-05-05 09:15 | -6.69148 | 108.58468 | 36840 ft | 457 kts | 90° |
| 2026-05-05 09:15 | -6.68688 | 108.64443 | 36835 ft | 455 kts | 81° |
| 2026-05-05 09:16 | -6.67854 | 108.70761 | 36832 ft | 456 kts | 81° |
| 2026-05-05 09:16 | -6.67030 | 108.77080 | 36831 ft | 456 kts | 81° |
| 2026-05-05 09:17 | -6.66207 | 108.83358 | 36831 ft | 456 kts | 81° |
| 2026-05-05 09:17 | -6.65375 | 108.89692 | 36831 ft | 457 kts | 81° |
| 2026-05-05 09:18 | -6.64542 | 108.96025 | 36832 ft | 457 kts | 81° |
| 2026-05-05 09:18 | -6.63707 | 109.02371 | 36837 ft | 458 kts | 81° |
| 2026-05-05 09:19 | -6.62870 | 109.08724 | 36838 ft | 458 kts | 81° |
| 2026-05-05 09:19 | -6.62031 | 109.15080 | 36837 ft | 459 kts | 81° |
| 2026-05-05 09:20 | -6.61192 | 109.21438 | 36833 ft | 459 kts | 81° |
| 2026-05-05 09:20 | -6.60350 | 109.27804 | 36839 ft | 459 kts | 81° |
| 2026-05-05 09:21 | -6.59508 | 109.34169 | 36838 ft | 459 kts | 81° |
| 2026-05-05 09:21 | -6.58665 | 109.40534 | 36831 ft | 459 kts | 81° |
| 2026-05-05 09:22 | -6.57821 | 109.46898 | 36829 ft | 459 kts | 81° |
| 2026-05-05 09:22 | -6.56976 | 109.53265 | 36831 ft | 459 kts | 81° |
| 2026-05-05 09:23 | -6.56137 | 109.59584 | 36825 ft | 459 kts | 81° |
| 2026-05-05 09:23 | -6.55291 | 109.65946 | 36822 ft | 459 kts | 81° |
| 2026-05-05 09:24 | -6.54445 | 109.72303 | 36822 ft | 459 kts | 81° |
| 2026-05-05 09:24 | -6.53599 | 109.78657 | 36822 ft | 458 kts | 81° |
| 2026-05-05 09:25 | -6.52752 | 109.85002 | 36817 ft | 458 kts | 81° |
| 2026-05-05 09:25 | -6.51905 | 109.91349 | 36819 ft | 458 kts | 81° |
| 2026-05-05 09:26 | -6.51059 | 109.97685 | 36815 ft | 457 kts | 81° |
| 2026-05-05 09:26 | -6.50211 | 110.04021 | 36816 ft | 457 kts | 81° |
| 2026-05-05 09:27 | -6.49363 | 110.10352 | 36811 ft | 457 kts | 81° |
| 2026-05-05 09:27 | -6.48515 | 110.16680 | 36806 ft | 457 kts | 81° |
| 2026-05-05 09:28 | -6.47666 | 110.23015 | 36804 ft | 457 kts | 81° |
| 2026-05-05 09:28 | -6.46816 | 110.29344 | 36801 ft | 457 kts | 81° |
| 2026-05-05 09:29 | -6.45964 | 110.35683 | 36804 ft | 458 kts | 81° |
| 2026-05-05 09:29 | -6.45117 | 110.42023 | 36806 ft | 458 kts | 81° |
| 2026-05-05 09:30 | -6.44285 | 110.48338 | 36808 ft | 459 kts | 81° |
| 2026-05-05 09:30 | -6.43442 | 110.54724 | 36805 ft | 460 kts | 81° |
| 2026-05-05 09:31 | -6.42601 | 110.61076 | 36808 ft | 460 kts | 82° |
| 2026-05-05 09:31 | -6.41755 | 110.67460 | 36814 ft | 461 kts | 81° |
| 2026-05-05 09:32 | -6.40906 | 110.73863 | 36816 ft | 462 kts | 82° |
| 2026-05-05 09:32 | -6.40056 | 110.80267 | 36829 ft | 463 kts | 81° |
| 2026-05-05 09:33 | -6.39203 | 110.86685 | 36836 ft | 463 kts | 81° |
| 2026-05-05 09:33 | -6.38351 | 110.93096 | 36822 ft | 461 kts | 81° |
| 2026-05-05 09:34 | -6.37500 | 110.99484 | 36823 ft | 461 kts | 81° |
| 2026-05-05 09:34 | -6.36649 | 111.05873 | 36829 ft | 461 kts | 81° |
| 2026-05-05 09:35 | -6.35804 | 111.12206 | 36826 ft | 461 kts | 81° |
| 2026-05-05 09:35 | -6.34534 | 111.21824 | 36822 ft | 460 kts | 81° |
| 2026-05-05 09:36 | -6.33694 | 111.28194 | 36820 ft | 460 kts | 81° |
| 2026-05-05 09:36 | -6.32858 | 111.34516 | 36819 ft | 459 kts | 81° |
| 2026-05-05 09:37 | -6.32015 | 111.40880 | 36820 ft | 459 kts | 81° |
| 2026-05-05 09:37 | -6.31173 | 111.47236 | 36818 ft | 459 kts | 81° |
| 2026-05-05 09:38 | -6.30330 | 111.53589 | 36816 ft | 459 kts | 81° |
| 2026-05-05 09:38 | -6.29487 | 111.59939 | 36819 ft | 459 kts | 81° |
| 2026-05-05 09:39 | -6.28642 | 111.66294 | 36821 ft | 459 kts | 81° |
| 2026-05-05 09:39 | -6.27796 | 111.72652 | 36822 ft | 459 kts | 81° |
| 2026-05-05 09:40 | -6.26950 | 111.79011 | 36823 ft | 459 kts | 81° |
| 2026-05-05 09:40 | -6.26097 | 111.85373 | 36826 ft | 459 kts | 81° |
| 2026-05-05 09:41 | -6.25228 | 111.91734 | 36831 ft | 460 kts | 81° |
| 2026-05-05 09:41 | -6.24359 | 111.98107 | 36831 ft | 460 kts | 81° |
| 2026-05-05 09:42 | -6.23491 | 112.04480 | 36831 ft | 461 kts | 81° |
| 2026-05-05 09:42 | -6.22626 | 112.10821 | 36840 ft | 461 kts | 81° |
| 2026-05-05 09:43 | -6.21754 | 112.17209 | 36839 ft | 462 kts | 81° |
| 2026-05-05 09:43 | -6.20880 | 112.23602 | 36837 ft | 462 kts | 81° |
| 2026-05-05 09:44 | -6.20005 | 112.30003 | 36839 ft | 463 kts | 81° |
| 2026-05-05 09:44 | -6.19127 | 112.36412 | 36842 ft | 463 kts | 81° |
| 2026-05-05 09:45 | -6.18248 | 112.42821 | 36843 ft | 463 kts | 81° |
| 2026-05-05 09:45 | -6.17368 | 112.49243 | 36846 ft | 464 kts | 81° |
| 2026-05-05 09:46 | -6.16487 | 112.55664 | 36847 ft | 464 kts | 81° |
| 2026-05-05 09:46 | -6.15603 | 112.62092 | 36844 ft | 464 kts | 81° |
| 2026-05-05 09:47 | -6.14720 | 112.68513 | 36842 ft | 463 kts | 81° |
| 2026-05-05 09:47 | -6.13836 | 112.74936 | 36843 ft | 464 kts | 81° |
| 2026-05-05 09:48 | -6.12951 | 112.81362 | 36840 ft | 464 kts | 81° |
| 2026-05-05 09:48 | -6.12064 | 112.87788 | 36842 ft | 464 kts | 81° |
| 2026-05-05 09:49 | -6.11182 | 112.94168 | 36843 ft | 464 kts | 81° |
| 2026-05-05 09:49 | -6.10296 | 113.00587 | 36843 ft | 464 kts | 81° |
| 2026-05-05 09:50 | -6.09409 | 113.07011 | 36841 ft | 464 kts | 81° |
| 2026-05-05 09:50 | -6.08519 | 113.13433 | 36841 ft | 464 kts | 81° |
| 2026-05-05 09:51 | -6.07631 | 113.19846 | 36842 ft | 464 kts | 81° |
| 2026-05-05 09:51 | -6.06742 | 113.26255 | 36841 ft | 463 kts | 81° |
| 2026-05-05 09:52 | -6.05853 | 113.32667 | 36845 ft | 463 kts | 81° |
| 2026-05-05 09:52 | -6.04963 | 113.39071 | 36845 ft | 463 kts | 81° |
| 2026-05-05 09:53 | -6.04072 | 113.45477 | 36843 ft | 463 kts | 81° |
| 2026-05-05 09:53 | -6.03181 | 113.51881 | 36843 ft | 463 kts | 81° |
| 2026-05-05 09:54 | -6.02441 | 113.57200 | 36841 ft | 463 kts | 81° |
| 2026-05-05 09:54 | -6.01548 | 113.63601 | 36844 ft | 463 kts | 81° |
| 2026-05-05 09:55 | -6.00656 | 113.70000 | 36844 ft | 462 kts | 81° |
| 2026-05-05 09:55 | -5.99763 | 113.76397 | 36845 ft | 462 kts | 81° |
| 2026-05-05 09:56 | -5.98870 | 113.82788 | 36848 ft | 462 kts | 81° |
| 2026-05-05 09:56 | -5.97976 | 113.89179 | 36851 ft | 462 kts | 81° |
| 2026-05-05 09:57 | -5.97083 | 113.95560 | 36848 ft | 461 kts | 81° |
| 2026-05-05 09:57 | -5.96190 | 114.01937 | 36847 ft | 461 kts | 81° |
| 2026-05-05 09:58 | -5.95302 | 114.08271 | 36851 ft | 461 kts | 81° |
| 2026-05-05 09:58 | -5.94410 | 114.14637 | 36852 ft | 460 kts | 81° |
| 2026-05-05 09:59 | -5.93515 | 114.20998 | 36849 ft | 460 kts | 81° |
| 2026-05-05 09:59 | -5.92621 | 114.27357 | 36847 ft | 459 kts | 81° |
| 2026-05-05 10:00 | -5.91727 | 114.33707 | 36848 ft | 459 kts | 81° |
| 2026-05-05 10:00 | -5.90834 | 114.40054 | 36848 ft | 459 kts | 81° |
| 2026-05-05 10:01 | -5.89940 | 114.46400 | 36846 ft | 459 kts | 81° |
| 2026-05-05 10:01 | -5.89046 | 114.52738 | 36846 ft | 458 kts | 81° |
| 2026-05-05 10:02 | -5.88150 | 114.59075 | 36846 ft | 458 kts | 81° |
| 2026-05-05 10:02 | -5.87255 | 114.65415 | 36849 ft | 458 kts | 81° |
| 2026-05-05 10:03 | -5.86359 | 114.71750 | 36849 ft | 458 kts | 81° |
| 2026-05-05 10:03 | -5.85463 | 114.78086 | 36851 ft | 458 kts | 81° |
| 2026-05-05 10:04 | -5.84565 | 114.84424 | 36852 ft | 458 kts | 81° |
| 2026-05-05 10:04 | -5.83666 | 114.90759 | 36851 ft | 458 kts | 81° |
| 2026-05-05 10:05 | -5.82775 | 114.97046 | 36848 ft | 458 kts | 81° |
| 2026-05-05 10:05 | -5.81870 | 115.03420 | 36850 ft | 458 kts | 81° |
| 2026-05-05 10:06 | -5.80976 | 115.09708 | 36851 ft | 458 kts | 81° |
| 2026-05-05 10:06 | -5.80075 | 115.16036 | 36849 ft | 458 kts | 81° |
| 2026-05-05 10:07 | -5.79176 | 115.22362 | 36848 ft | 458 kts | 81° |
| 2026-05-05 10:07 | -5.78275 | 115.28689 | 36844 ft | 458 kts | 81° |
| 2026-05-05 10:08 | -5.77373 | 115.35016 | 36844 ft | 458 kts | 81° |
| 2026-05-05 10:08 | -5.76469 | 115.41343 | 36847 ft | 458 kts | 81° |
| 2026-05-05 10:09 | -5.75565 | 115.47672 | 36846 ft | 458 kts | 81° |
| 2026-05-05 10:09 | -5.74661 | 115.53998 | 36846 ft | 458 kts | 81° |
| 2026-05-05 10:10 | -5.73756 | 115.60329 | 36846 ft | 458 kts | 81° |
| 2026-05-05 10:10 | -5.72848 | 115.66665 | 36846 ft | 458 kts | 81° |
| 2026-05-05 10:11 | -5.71940 | 115.73002 | 36845 ft | 459 kts | 81° |
| 2026-05-05 10:11 | -5.71038 | 115.79300 | 36849 ft | 459 kts | 81° |
| 2026-05-05 10:12 | -5.70129 | 115.85640 | 36849 ft | 459 kts | 81° |
| 2026-05-05 10:12 | -5.69217 | 115.91988 | 36855 ft | 459 kts | 81° |
| 2026-05-05 10:13 | -5.68304 | 115.98337 | 36854 ft | 460 kts | 81° |
| 2026-05-05 10:13 | -5.67391 | 116.04693 | 36856 ft | 460 kts | 81° |
| 2026-05-05 10:14 | -5.66476 | 116.11045 | 36852 ft | 460 kts | 81° |
| 2026-05-05 10:14 | -5.65560 | 116.17407 | 36854 ft | 460 kts | 81° |
| 2026-05-05 10:15 | -5.64643 | 116.23767 | 36855 ft | 460 kts | 81° |
| 2026-05-05 10:15 | -5.63725 | 116.30128 | 36858 ft | 460 kts | 81° |
| 2026-05-05 10:16 | -5.62806 | 116.36489 | 36855 ft | 461 kts | 81° |
| 2026-05-05 10:16 | -5.61887 | 116.42854 | 36858 ft | 461 kts | 81° |
| 2026-05-05 10:17 | -5.60966 | 116.49218 | 36857 ft | 461 kts | 81° |
| 2026-05-05 10:17 | -5.60044 | 116.55583 | 36857 ft | 461 kts | 81° |
| 2026-05-05 10:18 | -5.59122 | 116.61948 | 36853 ft | 461 kts | 81° |
| 2026-05-05 10:18 | -5.58199 | 116.68316 | 36853 ft | 461 kts | 81° |
| 2026-05-05 10:19 | -5.57276 | 116.74682 | 36850 ft | 461 kts | 81° |
| 2026-05-05 10:19 | -5.56352 | 116.81048 | 36855 ft | 461 kts | 81° |
| 2026-05-05 10:20 | -5.55433 | 116.87373 | 36852 ft | 461 kts | 81° |
| 2026-05-05 10:20 | -5.54507 | 116.93740 | 36858 ft | 461 kts | 81° |
| 2026-05-05 10:21 | -5.53581 | 117.00109 | 36854 ft | 461 kts | 82° |
| 2026-05-05 10:21 | -5.52654 | 117.06478 | 36855 ft | 461 kts | 82° |
| 2026-05-05 10:22 | -5.51816 | 117.12860 | 36856 ft | 461 kts | 83° |
| 2026-05-05 10:22 | -5.51044 | 117.19248 | 36860 ft | 461 kts | 83° |
| 2026-05-05 10:23 | -5.50256 | 117.25634 | 36857 ft | 461 kts | 83° |
| 2026-05-05 10:23 | -5.49458 | 117.32019 | 36858 ft | 461 kts | 83° |
| 2026-05-05 10:24 | -5.48659 | 117.38403 | 36856 ft | 461 kts | 83° |
| 2026-05-05 10:24 | -5.47873 | 117.44684 | 36856 ft | 461 kts | 83° |
| 2026-05-05 10:25 | -5.47073 | 117.51065 | 36856 ft | 461 kts | 83° |
| 2026-05-05 10:25 | -5.46278 | 117.57403 | 36857 ft | 461 kts | 83° |
| 2026-05-05 10:26 | -5.45477 | 117.63778 | 36859 ft | 461 kts | 83° |
| 2026-05-05 10:26 | -5.44676 | 117.70153 | 36860 ft | 460 kts | 83° |
| 2026-05-05 10:27 | -5.43874 | 117.76528 | 36855 ft | 460 kts | 83° |
| 2026-05-05 10:27 | -5.43072 | 117.82903 | 36864 ft | 460 kts | 83° |
| 2026-05-05 10:28 | -5.42269 | 117.89277 | 36859 ft | 460 kts | 83° |
| 2026-05-05 10:28 | -5.41470 | 117.95611 | 36817 ft | 449 kts | 83° |
| 2026-05-05 10:29 | -5.41083 | 117.98674 | 36696 ft | 435 kts | 83° |
| 2026-05-05 10:29 | -5.40709 | 118.01638 | 36577 ft | 421 kts | 83° |
| 2026-05-05 10:29 | -5.40347 | 118.04507 | 36465 ft | 408 kts | 83° |
| 2026-05-05 10:29 | -5.39995 | 118.07286 | 36327 ft | 396 kts | 83° |
| 2026-05-05 10:30 | -5.39655 | 118.09982 | 36212 ft | 383 kts | 83° |
| 2026-05-05 10:30 | -5.39328 | 118.12590 | 35894 ft | 373 kts | 83° |
| 2026-05-05 10:30 | -5.39004 | 118.15192 | 34902 ft | 381 kts | 83° |
| 2026-05-05 10:30 | -5.38669 | 118.17883 | 33614 ft | 397 kts | 83° |
| 2026-05-05 10:31 | -5.38324 | 118.20644 | 32225 ft | 410 kts | 83° |
| 2026-05-05 10:31 | -5.37964 | 118.23521 | 30888 ft | 420 kts | 83° |
| 2026-05-05 10:31 | -5.37596 | 118.26466 | 29309 ft | 432 kts | 83° |
| 2026-05-05 10:31 | -5.37216 | 118.29500 | 27340 ft | 445 kts | 83° |
| 2026-05-05 10:32 | -5.36824 | 118.32636 | 25244 ft | 460 kts | 84° |
| 2026-05-05 10:32 | -5.36418 | 118.35875 | 23235 ft | 474 kts | 84° |
| 2026-05-05 10:32 | -5.36006 | 118.39158 | 21534 ft | 471 kts | 84° |
| 2026-05-05 10:32 | -5.35601 | 118.42378 | 20220 ft | 459 kts | 83° |
| 2026-05-05 10:33 | -5.35206 | 118.45526 | 18864 ft | 451 kts | 83° |
| 2026-05-05 10:33 | -5.34817 | 118.48617 | 17484 ft | 443 kts | 83° |
| 2026-05-05 10:33 | -5.34436 | 118.51651 | 16154 ft | 433 kts | 83° |
| 2026-05-05 10:33 | -5.34064 | 118.54612 | 14913 ft | 423 kts | 83° |
| 2026-05-05 10:34 | -5.33704 | 118.57482 | 14075 ft | 405 kts | 83° |
| 2026-05-05 10:34 | -5.33362 | 118.60203 | 13546 ft | 381 kts | 83° |
| 2026-05-05 10:34 | -5.33041 | 118.62754 | 13212 ft | 356 kts | 83° |
| 2026-05-05 10:34 | -5.32740 | 118.65151 | 13051 ft | 338 kts | 83° |
| 2026-05-05 10:35 | -5.32453 | 118.67438 | 12897 ft | 322 kts | 83° |
| 2026-05-05 10:35 | -5.32181 | 118.69605 | 12861 ft | 305 kts | 83° |
| 2026-05-05 10:35 | -5.31923 | 118.71655 | 12859 ft | 287 kts | 83° |
| 2026-05-05 10:35 | -5.31680 | 118.73582 | 12862 ft | 270 kts | 83° |
| 2026-05-05 10:36 | -5.31453 | 118.75393 | 12860 ft | 254 kts | 83° |
| 2026-05-05 10:36 | -5.31239 | 118.77095 | 12859 ft | 238 kts | 83° |
| 2026-05-05 10:36 | -5.31038 | 118.78689 | 12858 ft | 222 kts | 83° |
| 2026-05-05 10:36 | -5.30853 | 118.80163 | 12894 ft | 202 kts | 83° |
| 2026-05-05 10:37 | -5.30685 | 118.81490 | 12853 ft | 182 kts | 83° |
| 2026-05-05 10:37 | -5.30537 | 118.82665 | 12854 ft | 163 kts | 83° |
| 2026-05-05 10:37 | -5.30390 | 118.83851 | 12905 ft | 190 kts | 83° |
| 2026-05-05 10:37 | -5.30210 | 118.85282 | 12933 ft | 218 kts | 83° |
| 2026-05-05 10:38 | -5.30019 | 118.86802 | 12947 ft | 220 kts | 83° |
| 2026-05-05 10:38 | -5.29827 | 118.88313 | 12956 ft | 218 kts | 83° |
| 2026-05-05 10:38 | -5.29636 | 118.89821 | 12968 ft | 218 kts | 83° |
| 2026-05-05 10:38 | -5.29485 | 118.91325 | 12991 ft | 218 kts | 89° |
| 2026-05-05 10:39 | -5.29484 | 118.92845 | 12877 ft | 216 kts | 90° |
| 2026-05-05 10:39 | -5.29485 | 118.94335 | 12547 ft | 212 kts | 90° |
| 2026-05-05 10:39 | -5.29484 | 118.95816 | 12068 ft | 212 kts | 90° |
| 2026-05-05 10:39 | -5.29480 | 118.97267 | 11790 ft | 205 kts | 90° |
| 2026-05-05 10:40 | -5.29474 | 118.98721 | 11513 ft | 212 kts | 90° |
| 2026-05-05 10:40 | -5.29469 | 119.00203 | 11230 ft | 212 kts | 90° |
| 2026-05-05 10:40 | -5.29463 | 119.01679 | 10948 ft | 211 kts | 90° |
| 2026-05-05 10:40 | -5.29457 | 119.03142 | 10671 ft | 209 kts | 90° |
| 2026-05-05 10:41 | -5.29451 | 119.04599 | 10392 ft | 208 kts | 90° |
| 2026-05-05 10:41 | -5.29446 | 119.06048 | 10117 ft | 207 kts | 90° |
| 2026-05-05 10:41 | -5.29440 | 119.07492 | 9841 ft | 207 kts | 90° |
| 2026-05-05 10:41 | -5.29434 | 119.08930 | 9551 ft | 206 kts | 90° |
| 2026-05-05 10:42 | -5.29423 | 119.11790 | 8998 ft | 205 kts | 90° |
| 2026-05-05 10:42 | -5.29418 | 119.13212 | 8732 ft | 203 kts | 90° |
| 2026-05-05 10:42 | -5.29412 | 119.14624 | 8460 ft | 201 kts | 90° |
| 2026-05-05 10:43 | -5.29406 | 119.15979 | 8342 ft | 185 kts | 90° |
| 2026-05-05 10:43 | -5.29401 | 119.17228 | 8039 ft | 177 kts | 90° |
| 2026-05-05 10:43 | -5.29396 | 119.18442 | 7731 ft | 173 kts | 90° |
| 2026-05-05 10:43 | -5.29392 | 119.19655 | 7504 ft | 178 kts | 90° |
| 2026-05-05 10:44 | -5.29387 | 119.20911 | 7264 ft | 181 kts | 90° |
| 2026-05-05 10:44 | -5.29382 | 119.22160 | 7023 ft | 177 kts | 90° |
| 2026-05-05 10:44 | -5.29377 | 119.23393 | 6789 ft | 177 kts | 90° |
| 2026-05-05 10:44 | -5.29371 | 119.24631 | 6554 ft | 177 kts | 90° |
| 2026-05-05 10:45 | -5.29366 | 119.25859 | 6321 ft | 175 kts | 90° |
| 2026-05-05 10:45 | -5.29361 | 119.27077 | 6077 ft | 174 kts | 90° |
| 2026-05-05 10:45 | -5.29356 | 119.28292 | 5846 ft | 174 kts | 90° |
| 2026-05-05 10:45 | -5.29351 | 119.29511 | 5611 ft | 176 kts | 90° |
| 2026-05-05 10:46 | -5.29346 | 119.30732 | 5381 ft | 174 kts | 90° |
| 2026-05-05 10:46 | -5.29341 | 119.31946 | 5154 ft | 174 kts | 90° |
| 2026-05-05 10:46 | -5.29336 | 119.33155 | 4920 ft | 173 kts | 90° |
| 2026-05-05 10:46 | -5.29330 | 119.34363 | 4691 ft | 173 kts | 90° |
| 2026-05-05 10:47 | -5.29325 | 119.35561 | 4503 ft | 167 kts | 90° |
| 2026-05-05 10:47 | -5.29320 | 119.36676 | 4418 ft | 153 kts | 90° |
| 2026-05-05 10:47 | -5.29318 | 119.37361 | 4356 ft | 144 kts | 90° |
| 2026-05-05 10:47 | -5.29312 | 119.38307 | 4272 ft | 127 kts | 90° |
| 2026-05-05 10:48 | -5.29310 | 119.39177 | 3991 ft | 124 kts | 90° |
| 2026-05-05 10:48 | -5.29305 | 119.40335 | 3582 ft | 124 kts | 90° |
| 2026-05-05 10:48 | -5.29303 | 119.40906 | 3368 ft | 123 kts | 90° |
| 2026-05-05 10:48 | -5.29293 | 119.41751 | 3112 ft | 119 kts | 86° |
| 2026-05-05 10:49 | -5.29041 | 119.42558 | 3016 ft | 122 kts | 59° |
| 2026-05-05 10:49 | -5.28450 | 119.43198 | 3022 ft | 127 kts | 41° |
| 2026-05-05 10:49 | -5.27721 | 119.43694 | 3029 ft | 128 kts | 33° |
| 2026-05-05 10:49 | -5.26957 | 119.44137 | 3017 ft | 126 kts | 32° |
| 2026-05-05 10:50 | -5.26196 | 119.44576 | 3022 ft | 127 kts | 32° |
| 2026-05-05 10:50 | -5.25431 | 119.45018 | 3020 ft | 127 kts | 32° |
| 2026-05-05 10:50 | -5.24667 | 119.45461 | 3020 ft | 126 kts | 32° |
| 2026-05-05 10:50 | -5.23905 | 119.45903 | 3019 ft | 126 kts | 32° |
| 2026-05-05 10:51 | -5.23137 | 119.46347 | 2999 ft | 129 kts | 32° |
| 2026-05-05 10:51 | -5.22366 | 119.46793 | 2889 ft | 128 kts | 32° |
| 2026-05-05 10:51 | -5.21599 | 119.47237 | 2721 ft | 126 kts | 32° |
| 2026-05-05 10:51 | -5.20833 | 119.47680 | 2574 ft | 127 kts | 32° |
| 2026-05-05 10:52 | -5.20072 | 119.48121 | 2413 ft | 126 kts | 32° |
| 2026-05-05 10:52 | -5.19322 | 119.48555 | 2265 ft | 126 kts | 31° |
| 2026-05-05 10:52 | -5.18560 | 119.48996 | 2094 ft | 127 kts | 31° |
| 2026-05-05 10:52 | -5.17796 | 119.49439 | 1939 ft | 126 kts | 31° |
| 2026-05-05 10:53 | -5.17031 | 119.49882 | 1781 ft | 128 kts | 31° |
| 2026-05-05 10:53 | -5.16264 | 119.50325 | 1613 ft | 127 kts | 31° |
| 2026-05-05 10:53 | -5.15499 | 119.50768 | 1445 ft | 127 kts | 31° |
| 2026-05-05 10:53 | -5.14741 | 119.51207 | 1294 ft | 126 kts | 31° |
| 2026-05-05 10:54 | -5.13983 | 119.51646 | 1136 ft | 125 kts | 31° |
| 2026-05-05 10:54 | -5.13225 | 119.52085 | 981 ft | 126 kts | 32° |
| 2026-05-05 10:54 | -5.12472 | 119.52520 | 812 ft | 124 kts | 32° |
| 2026-05-05 10:54 | -5.11720 | 119.52955 | 648 ft | 124 kts | 32° |
| 2026-05-05 10:55 | -5.10980 | 119.53383 | 478 ft | 124 kts | 32° |
| 2026-05-05 10:55 | -5.10237 | 119.53814 | 320 ft | 120 kts | 33° |
| 2026-05-05 10:55 | -5.09507 | 119.54237 | 169 ft | 121 kts | 33° |
| 2026-05-05 10:55 | -5.08782 | 119.54663 | 46 ft | 117 kts | 33° |
| 2026-05-05 10:56 | -5.08298 | 119.54940 | 45 ft | 37 kts | 29° |
| 2026-05-05 10:56 | -5.08232 | 119.54977 | 46 ft | 17 kts | 29° |
| 2026-05-05 10:56 | -5.08108 | 119.54922 | 47 ft | 25 kts | 301° |
| 2026-05-05 10:56 | -5.08004 | 119.54759 | 48 ft | 29 kts | 315° |
| 2026-05-05 10:57 | -5.07835 | 119.54758 | 48 ft | 24 kts | 26° |
| 2026-05-05 10:57 | -5.07784 | 119.54758 | 48 ft | 6 kts | 313° |
| 2026-05-05 10:57 | -5.07761 | 119.54726 | 48 ft | 0 kts | 303° |